sensor_id;sensor_type;location;lat;lon;timestamp;P1;durP1;ratioP1;P2;durP2;ratioP2
22939;SDS011;11636;52.086;5.090;2023-03-14T00:01:14;22.58;;;4.63;;
22939;SDS011;11636;52.086;5.090;2023-03-14T00:03:42;24.83;;;5.07;;
22939;SDS011;11636;52.086;5.090;2023-03-14T00:06:17;21.95;;;5.40;;
22939;SDS011;11636;52.086;5.090;2023-03-14T00:08:45;16.38;;;4.15;;
22939;SDS011;11636;52.086;5.090;2023-03-14T00:11:19;19.33;;;4.78;;
22939;SDS011;11636;52.086;5.090;2023-03-14T00:13:54;27.58;;;5.25;;
22939;SDS011;11636;52.086;5.090;2023-03-14T00:16:27;23.08;;;4.90;;
22939;SDS011;11636;52.086;5.090;2023-03-14T00:19:00;25.15;;;4.68;;
22939;SDS011;11636;52.086;5.090;2023-03-14T00:21:27;18.15;;;4.13;;
22939;SDS011;11636;52.086;5.090;2023-03-14T00:23:54;22.23;;;4.75;;
22939;SDS011;11636;52.086;5.090;2023-03-14T00:26:27;23.85;;;4.93;;
22939;SDS011;11636;52.086;5.090;2023-03-14T00:28:54;20.08;;;4.82;;
22939;SDS011;11636;52.086;5.090;2023-03-14T00:31:28;17.38;;;4.25;;
22939;SDS011;11636;52.086;5.090;2023-03-14T00:34:02;20.13;;;3.50;;
22939;SDS011;11636;52.086;5.090;2023-03-14T00:36:36;15.00;;;2.92;;
22939;SDS011;11636;52.086;5.090;2023-03-14T00:39:03;18.58;;;3.05;;
22939;SDS011;11636;52.086;5.090;2023-03-14T00:41:36;11.75;;;2.38;;
22939;SDS011;11636;52.086;5.090;2023-03-14T00:44:03;13.52;;;3.03;;
22939;SDS011;11636;52.086;5.090;2023-03-14T00:46:37;13.23;;;2.60;;
22939;SDS011;11636;52.086;5.090;2023-03-14T00:49:08;20.00;;;3.10;;
22939;SDS011;11636;52.086;5.090;2023-03-14T00:51:41;16.92;;;3.30;;
22939;SDS011;11636;52.086;5.090;2023-03-14T00:54:08;16.85;;;3.38;;
22939;SDS011;11636;52.086;5.090;2023-03-14T00:56:41;16.85;;;3.45;;
22939;SDS011;11636;52.086;5.090;2023-03-14T00:59:08;12.35;;;3.72;;
22939;SDS011;11636;52.086;5.090;2023-03-14T01:01:42;12.00;;;3.10;;
22939;SDS011;11636;52.086;5.090;2023-03-14T01:04:09;11.82;;;2.80;;
22939;SDS011;11636;52.086;5.090;2023-03-14T01:06:38;13.25;;;2.58;;
22939;SDS011;11636;52.086;5.090;2023-03-14T01:09:12;12.80;;;2.72;;
22939;SDS011;11636;52.086;5.090;2023-03-14T01:11:45;14.38;;;2.80;;
22939;SDS011;11636;52.086;5.090;2023-03-14T01:14:12;10.77;;;2.60;;
22939;SDS011;11636;52.086;5.090;2023-03-14T01:16:46;11.88;;;2.55;;
22939;SDS011;11636;52.086;5.090;2023-03-14T01:19:13;9.80;;;2.35;;
22939;SDS011;11636;52.086;5.090;2023-03-14T01:21:46;10.50;;;2.35;;
22939;SDS011;11636;52.086;5.090;2023-03-14T01:24:13;13.40;;;3.20;;
22939;SDS011;11636;52.086;5.090;2023-03-14T01:26:46;13.25;;;2.80;;
22939;SDS011;11636;52.086;5.090;2023-03-14T01:29:13;15.63;;;3.03;;
22939;SDS011;11636;52.086;5.090;2023-03-14T01:31:46;11.93;;;2.40;;
22939;SDS011;11636;52.086;5.090;2023-03-14T01:34:13;14.80;;;2.78;;
22939;SDS011;11636;52.086;5.090;2023-03-14T01:36:46;12.80;;;2.85;;
22939;SDS011;11636;52.086;5.090;2023-03-14T01:39:13;9.35;;;2.53;;
22939;SDS011;11636;52.086;5.090;2023-03-14T01:41:46;12.50;;;2.50;;
22939;SDS011;11636;52.086;5.090;2023-03-14T01:44:13;17.10;;;2.42;;
22939;SDS011;11636;52.086;5.090;2023-03-14T01:46:46;12.95;;;2.65;;
22939;SDS011;11636;52.086;5.090;2023-03-14T01:52:25;15.53;;;3.07;;
22939;SDS011;11636;52.086;5.090;2023-03-14T01:55:05;13.07;;;2.70;;
22939;SDS011;11636;52.086;5.090;2023-03-14T01:57:43;12.88;;;2.30;;
22939;SDS011;11636;52.086;5.090;2023-03-14T02:00:18;9.35;;;2.47;;
22939;SDS011;11636;52.086;5.090;2023-03-14T02:03:08;9.55;;;2.10;;
22939;SDS011;11636;52.086;5.090;2023-03-14T02:05:45;13.30;;;2.20;;
22939;SDS011;11636;52.086;5.090;2023-03-14T02:08:14;12.90;;;2.28;;
22939;SDS011;11636;52.086;5.090;2023-03-14T02:10:50;13.05;;;2.13;;
22939;SDS011;11636;52.086;5.090;2023-03-14T02:13:18;12.13;;;2.30;;
22939;SDS011;11636;52.086;5.090;2023-03-14T02:15:52;13.07;;;2.30;;
22939;SDS011;11636;52.086;5.090;2023-03-14T02:18:19;12.52;;;2.20;;
22939;SDS011;11636;52.086;5.090;2023-03-14T02:26:35;10.43;;;2.00;;
22939;SDS011;11636;52.086;5.090;2023-03-14T02:29:11;12.32;;;2.05;;
22939;SDS011;11636;52.086;5.090;2023-03-14T02:31:45;13.10;;;2.10;;
22939;SDS011;11636;52.086;5.090;2023-03-14T02:34:12;11.90;;;2.30;;
22939;SDS011;11636;52.086;5.090;2023-03-14T02:36:45;10.52;;;2.10;;
22939;SDS011;11636;52.086;5.090;2023-03-14T02:39:56;9.30;;;1.83;;
22939;SDS011;11636;52.086;5.090;2023-03-14T02:42:12;8.32;;;2.20;;
22939;SDS011;11636;52.086;5.090;2023-03-14T02:44:55;9.75;;;2.10;;
22939;SDS011;11636;52.086;5.090;2023-03-14T02:48:07;12.75;;;2.53;;
22939;SDS011;11636;52.086;5.090;2023-03-14T02:50:38;13.18;;;2.10;;
22939;SDS011;11636;52.086;5.090;2023-03-14T02:53:15;12.82;;;2.60;;
22939;SDS011;11636;52.086;5.090;2023-03-14T02:55:45;10.68;;;2.75;;
22939;SDS011;11636;52.086;5.090;2023-03-14T02:58:22;13.43;;;2.60;;
22939;SDS011;11636;52.086;5.090;2023-03-14T03:00:49;10.80;;;2.00;;
22939;SDS011;11636;52.086;5.090;2023-03-14T03:03:16;15.43;;;2.60;;
22939;SDS011;11636;52.086;5.090;2023-03-14T03:05:51;13.05;;;2.60;;
22939;SDS011;11636;52.086;5.090;2023-03-14T03:08:19;8.25;;;2.17;;
22939;SDS011;11636;52.086;5.090;2023-03-14T03:10:54;11.38;;;2.70;;
22939;SDS011;11636;52.086;5.090;2023-03-14T03:13:23;12.77;;;2.58;;
22939;SDS011;11636;52.086;5.090;2023-03-14T03:15:57;13.48;;;2.65;;
22939;SDS011;11636;52.086;5.090;2023-03-14T03:18:24;10.88;;;2.47;;
22939;SDS011;11636;52.086;5.090;2023-03-14T03:21:01;10.73;;;2.55;;
22939;SDS011;11636;52.086;5.090;2023-03-14T03:23:36;11.70;;;2.10;;
22939;SDS011;11636;52.086;5.090;2023-03-14T03:26:10;11.25;;;2.25;;
22939;SDS011;11636;52.086;5.090;2023-03-14T03:28:37;10.10;;;2.42;;
22939;SDS011;11636;52.086;5.090;2023-03-14T03:31:10;9.70;;;2.40;;
22939;SDS011;11636;52.086;5.090;2023-03-14T03:33:38;15.25;;;2.70;;
22939;SDS011;11636;52.086;5.090;2023-03-14T03:36:11;9.07;;;2.03;;
22939;SDS011;11636;52.086;5.090;2023-03-14T03:38:44;13.73;;;3.20;;
22939;SDS011;11636;52.086;5.090;2023-03-14T03:41:17;12.68;;;2.13;;
22939;SDS011;11636;52.086;5.090;2023-03-14T03:43:51;10.23;;;2.30;;
22939;SDS011;11636;52.086;5.090;2023-03-14T03:46:26;9.40;;;1.90;;
22939;SDS011;11636;52.086;5.090;2023-03-14T03:49:00;9.60;;;2.47;;
22939;SDS011;11636;52.086;5.090;2023-03-14T03:51:33;13.73;;;2.53;;
22939;SDS011;11636;52.086;5.090;2023-03-14T03:54:07;14.73;;;2.72;;
22939;SDS011;11636;52.086;5.090;2023-03-14T03:56:40;10.25;;;2.58;;
22939;SDS011;11636;52.086;5.090;2023-03-14T03:59:07;11.85;;;2.40;;
22939;SDS011;11636;52.086;5.090;2023-03-14T04:01:40;11.93;;;2.33;;
22939;SDS011;11636;52.086;5.090;2023-03-14T04:04:08;12.50;;;2.85;;
22939;SDS011;11636;52.086;5.090;2023-03-14T04:06:41;14.07;;;2.50;;
22939;SDS011;11636;52.086;5.090;2023-03-14T04:09:09;12.32;;;2.15;;
22939;SDS011;11636;52.086;5.090;2023-03-14T04:11:43;12.85;;;3.25;;
22939;SDS011;11636;52.086;5.090;2023-03-14T04:14:10;11.77;;;2.40;;
22939;SDS011;11636;52.086;5.090;2023-03-14T04:16:43;11.15;;;2.40;;
22939;SDS011;11636;52.086;5.090;2023-03-14T04:19:10;11.40;;;1.90;;
22939;SDS011;11636;52.086;5.090;2023-03-14T04:21:44;15.93;;;3.30;;
22939;SDS011;11636;52.086;5.090;2023-03-14T04:24:19;12.82;;;2.50;;
22939;SDS011;11636;52.086;5.090;2023-03-14T04:26:52;12.30;;;2.58;;
22939;SDS011;11636;52.086;5.090;2023-03-14T04:29:19;12.30;;;2.40;;
22939;SDS011;11636;52.086;5.090;2023-03-14T04:31:52;11.07;;;2.25;;
22939;SDS011;11636;52.086;5.090;2023-03-14T04:34:20;11.13;;;2.40;;
22939;SDS011;11636;52.086;5.090;2023-03-14T04:36:53;7.57;;;2.00;;
22939;SDS011;11636;52.086;5.090;2023-03-14T04:39:20;13.85;;;2.80;;
22939;SDS011;11636;52.086;5.090;2023-03-14T04:41:57;10.93;;;2.72;;
22939;SDS011;11636;52.086;5.090;2023-03-14T04:44:24;9.68;;;2.42;;
22939;SDS011;11636;52.086;5.090;2023-03-14T04:46:51;11.98;;;2.47;;
22939;SDS011;11636;52.086;5.090;2023-03-14T04:49:24;11.27;;;2.88;;
22939;SDS011;11636;52.086;5.090;2023-03-14T04:51:51;13.18;;;2.60;;
22939;SDS011;11636;52.086;5.090;2023-03-14T04:54:25;11.35;;;2.17;;
22939;SDS011;11636;52.086;5.090;2023-03-14T04:56:52;9.30;;;2.22;;
22939;SDS011;11636;52.086;5.090;2023-03-14T04:59:25;13.68;;;2.58;;
22939;SDS011;11636;52.086;5.090;2023-03-14T05:01:52;11.05;;;2.75;;
22939;SDS011;11636;52.086;5.090;2023-03-14T05:04:26;10.70;;;2.35;;
22939;SDS011;11636;52.086;5.090;2023-03-14T05:06:52;10.65;;;2.60;;
22939;SDS011;11636;52.086;5.090;2023-03-14T05:09:25;10.05;;;2.35;;
22939;SDS011;11636;52.086;5.090;2023-03-14T05:11:53;10.95;;;2.70;;
22939;SDS011;11636;52.086;5.090;2023-03-14T05:14:26;8.43;;;2.63;;
22939;SDS011;11636;52.086;5.090;2023-03-14T05:16:53;11.50;;;2.55;;
22939;SDS011;11636;52.086;5.090;2023-03-14T05:19:26;10.85;;;2.90;;
22939;SDS011;11636;52.086;5.090;2023-03-14T05:22:02;7.82;;;2.50;;
22939;SDS011;11636;52.086;5.090;2023-03-14T05:24:35;10.95;;;2.67;;
22939;SDS011;11636;52.086;5.090;2023-03-14T05:27:03;11.35;;;2.90;;
22939;SDS011;11636;52.086;5.090;2023-03-14T05:29:36;9.77;;;2.63;;
22939;SDS011;11636;52.086;5.090;2023-03-14T05:32:03;10.57;;;3.83;;
22939;SDS011;11636;52.086;5.090;2023-03-14T05:34:36;7.82;;;2.83;;
22939;SDS011;11636;52.086;5.090;2023-03-14T05:37:03;11.75;;;3.60;;
22939;SDS011;11636;52.086;5.090;2023-03-14T05:39:36;9.00;;;3.00;;
22939;SDS011;11636;52.086;5.090;2023-03-14T05:42:05;8.75;;;3.30;;
22939;SDS011;11636;52.086;5.090;2023-03-14T05:44:32;11.30;;;3.80;;
22939;SDS011;11636;52.086;5.090;2023-03-14T05:47:05;7.97;;;3.80;;
22939;SDS011;11636;52.086;5.090;2023-03-14T05:49:32;9.25;;;4.10;;
22939;SDS011;11636;52.086;5.090;2023-03-14T05:52:06;10.50;;;4.82;;
22939;SDS011;11636;52.086;5.090;2023-03-14T05:54:33;13.02;;;4.82;;
22939;SDS011;11636;52.086;5.090;2023-03-14T05:57:06;11.55;;;5.32;;
22939;SDS011;11636;52.086;5.090;2023-03-14T05:59:33;11.35;;;5.10;;
22939;SDS011;11636;52.086;5.090;2023-03-14T06:02:07;8.23;;;4.20;;
22939;SDS011;11636;52.086;5.090;2023-03-14T06:04:33;12.68;;;5.78;;
22939;SDS011;11636;52.086;5.090;2023-03-14T06:07:06;8.68;;;5.40;;
22939;SDS011;11636;52.086;5.090;2023-03-14T06:09:33;9.23;;;4.88;;
22939;SDS011;11636;52.086;5.090;2023-03-14T06:12:08;14.43;;;5.75;;
22939;SDS011;11636;52.086;5.090;2023-03-14T06:14:35;14.77;;;5.22;;
22939;SDS011;11636;52.086;5.090;2023-03-14T06:17:08;10.27;;;3.85;;
22939;SDS011;11636;52.086;5.090;2023-03-14T06:19:35;6.95;;;2.30;;
22939;SDS011;11636;52.086;5.090;2023-03-14T06:22:03;10.32;;;1.85;;
22939;SDS011;11636;52.086;5.090;2023-03-14T06:24:35;6.88;;;1.50;;
22939;SDS011;11636;52.086;5.090;2023-03-14T06:27:03;6.22;;;1.10;;
22939;SDS011;11636;52.086;5.090;2023-03-14T06:29:37;6.00;;;1.00;;
22939;SDS011;11636;52.086;5.090;2023-03-14T06:32:04;3.08;;;0.77;;
22939;SDS011;11636;52.086;5.090;2023-03-14T06:34:38;8.05;;;1.20;;
22939;SDS011;11636;52.086;5.090;2023-03-14T06:37:04;5.18;;;0.90;;
22939;SDS011;11636;52.086;5.090;2023-03-14T06:39:39;2.83;;;0.77;;
22939;SDS011;11636;52.086;5.090;2023-03-14T06:42:06;5.07;;;1.05;;
22939;SDS011;11636;52.086;5.090;2023-03-14T06:44:40;4.28;;;1.00;;
22939;SDS011;11636;52.086;5.090;2023-03-14T06:47:06;7.20;;;1.00;;
22939;SDS011;11636;52.086;5.090;2023-03-14T06:49:39;6.00;;;1.00;;
22939;SDS011;11636;52.086;5.090;2023-03-14T06:52:06;4.43;;;1.00;;
22939;SDS011;11636;52.086;5.090;2023-03-14T06:54:39;5.20;;;1.30;;
22939;SDS011;11636;52.086;5.090;2023-03-14T06:57:06;5.68;;;1.20;;
22939;SDS011;11636;52.086;5.090;2023-03-14T06:59:39;4.35;;;1.13;;
22939;SDS011;11636;52.086;5.090;2023-03-14T07:02:08;6.82;;;1.40;;
22939;SDS011;11636;52.086;5.090;2023-03-14T07:04:52;5.32;;;1.88;;
22939;SDS011;11636;52.086;5.090;2023-03-14T07:07:19;4.03;;;1.50;;
22939;SDS011;11636;52.086;5.090;2023-03-14T07:09:53;7.75;;;1.52;;
22939;SDS011;11636;52.086;5.090;2023-03-14T07:12:20;6.78;;;1.80;;
22939;SDS011;11636;52.086;5.090;2023-03-14T07:14:54;7.88;;;2.17;;
22939;SDS011;11636;52.086;5.090;2023-03-14T07:17:22;7.10;;;1.90;;
22939;SDS011;11636;52.086;5.090;2023-03-14T07:19:55;9.18;;;1.58;;
22939;SDS011;11636;52.086;5.090;2023-03-14T07:22:22;7.90;;;1.60;;
22939;SDS011;11636;52.086;5.090;2023-03-14T07:24:51;9.38;;;1.75;;
22939;SDS011;11636;52.086;5.090;2023-03-14T07:27:24;6.88;;;1.73;;
22939;SDS011;11636;52.086;5.090;2023-03-14T07:29:51;7.72;;;1.88;;
22939;SDS011;11636;52.086;5.090;2023-03-14T07:32:25;7.43;;;2.00;;
22939;SDS011;11636;52.086;5.090;2023-03-14T07:34:52;10.77;;;2.10;;
22939;SDS011;11636;52.086;5.090;2023-03-14T07:37:25;7.93;;;1.70;;
22939;SDS011;11636;52.086;5.090;2023-03-14T07:39:51;5.78;;;1.63;;
22939;SDS011;11636;52.086;5.090;2023-03-14T07:42:26;6.93;;;2.17;;
22939;SDS011;11636;52.086;5.090;2023-03-14T07:44:53;8.90;;;1.77;;
22939;SDS011;11636;52.086;5.090;2023-03-14T07:47:26;10.10;;;2.35;;
22939;SDS011;11636;52.086;5.090;2023-03-14T07:49:52;7.10;;;1.85;;
22939;SDS011;11636;52.086;5.090;2023-03-14T07:52:26;7.07;;;2.22;;
22939;SDS011;11636;52.086;5.090;2023-03-14T07:54:53;10.70;;;2.38;;
22939;SDS011;11636;52.086;5.090;2023-03-14T07:57:30;9.77;;;2.28;;
22939;SDS011;11636;52.086;5.090;2023-03-14T07:59:56;10.35;;;1.50;;
22939;SDS011;11636;52.086;5.090;2023-03-14T08:02:31;8.18;;;1.30;;
22939;SDS011;11636;52.086;5.090;2023-03-14T08:04:58;4.80;;;1.38;;
22939;SDS011;11636;52.086;5.090;2023-03-14T08:07:32;4.25;;;0.98;;
22939;SDS011;11636;52.086;5.090;2023-03-14T08:10:05;6.03;;;1.00;;
22939;SDS011;11636;52.086;5.090;2023-03-14T08:12:32;5.28;;;0.75;;
22939;SDS011;11636;52.086;5.090;2023-03-14T08:15:06;9.90;;;1.20;;
22939;SDS011;11636;52.086;5.090;2023-03-14T08:17:33;7.93;;;1.10;;
22939;SDS011;11636;52.086;5.090;2023-03-14T08:20:07;9.88;;;1.58;;
22939;SDS011;11636;52.086;5.090;2023-03-14T08:22:40;5.82;;;1.10;;
22939;SDS011;11636;52.086;5.090;2023-03-14T08:25:14;6.28;;;0.80;;
22939;SDS011;11636;52.086;5.090;2023-03-14T08:27:41;7.07;;;1.08;;
22939;SDS011;11636;52.086;5.090;2023-03-14T08:30:16;3.30;;;0.68;;
22939;SDS011;11636;52.086;5.090;2023-03-14T08:32:51;5.47;;;0.65;;
22939;SDS011;11636;52.086;5.090;2023-03-14T08:35:18;4.78;;;0.63;;
22939;SDS011;11636;52.086;5.090;2023-03-14T08:37:52;5.28;;;0.90;;
22939;SDS011;11636;52.086;5.090;2023-03-14T08:40:25;11.40;;;1.30;;
22939;SDS011;11636;52.086;5.090;2023-03-14T08:42:52;7.00;;;0.70;;
22939;SDS011;11636;52.086;5.090;2023-03-14T08:45:26;6.57;;;0.60;;
22939;SDS011;11636;52.086;5.090;2023-03-14T08:47:53;3.45;;;0.65;;
22939;SDS011;11636;52.086;5.090;2023-03-14T08:50:27;2.83;;;0.90;;
22939;SDS011;11636;52.086;5.090;2023-03-14T08:52:54;5.03;;;0.60;;
22939;SDS011;11636;52.086;5.090;2023-03-14T08:55:30;9.23;;;0.90;;
22939;SDS011;11636;52.086;5.090;2023-03-14T08:58:03;4.72;;;0.85;;
22939;SDS011;11636;52.086;5.090;2023-03-14T09:00:36;4.72;;;1.00;;
22939;SDS011;11636;52.086;5.090;2023-03-14T09:03:09;8.77;;;1.08;;
22939;SDS011;11636;52.086;5.090;2023-03-14T09:05:51;11.80;;;1.45;;
22939;SDS011;11636;52.086;5.090;2023-03-14T09:08:18;7.53;;;0.88;;
22939;SDS011;11636;52.086;5.090;2023-03-14T09:10:52;8.07;;;1.38;;
22939;SDS011;11636;52.086;5.090;2023-03-14T09:13:22;8.65;;;1.13;;
22939;SDS011;11636;52.086;5.090;2023-03-14T09:15:55;9.48;;;1.60;;
22939;SDS011;11636;52.086;5.090;2023-03-14T09:18:22;15.43;;;2.17;;
22939;SDS011;11636;52.086;5.090;2023-03-14T09:20:57;11.48;;;1.85;;
22939;SDS011;11636;52.086;5.090;2023-03-14T09:23:24;17.70;;;2.13;;
22939;SDS011;11636;52.086;5.090;2023-03-14T09:25:57;18.15;;;2.47;;
22939;SDS011;11636;52.086;5.090;2023-03-14T09:28:25;18.92;;;2.75;;
22939;SDS011;11636;52.086;5.090;2023-03-14T09:31:08;18.80;;;2.83;;
22939;SDS011;11636;52.086;5.090;2023-03-14T09:33:43;17.23;;;2.17;;
22939;SDS011;11636;52.086;5.090;2023-03-14T09:36:17;17.05;;;2.53;;
22939;SDS011;11636;52.086;5.090;2023-03-14T09:38:44;19.38;;;3.08;;
22939;SDS011;11636;52.086;5.090;2023-03-14T09:41:28;17.40;;;2.97;;
22939;SDS011;11636;52.086;5.090;2023-03-14T09:44:08;11.85;;;2.33;;
22939;SDS011;11636;52.086;5.090;2023-03-14T09:46:43;18.38;;;2.63;;
22939;SDS011;11636;52.086;5.090;2023-03-14T09:49:19;16.45;;;2.47;;
22939;SDS011;11636;52.086;5.090;2023-03-14T09:51:56;15.90;;;2.80;;
22939;SDS011;11636;52.086;5.090;2023-03-14T09:54:46;15.00;;;2.47;;
22939;SDS011;11636;52.086;5.090;2023-03-14T09:57:18;12.60;;;1.92;;
22939;SDS011;11636;52.086;5.090;2023-03-14T09:59:58;15.20;;;2.03;;
22939;SDS011;11636;52.086;5.090;2023-03-14T10:02:38;15.85;;;2.63;;
22939;SDS011;11636;52.086;5.090;2023-03-14T10:05:14;21.15;;;3.03;;
22939;SDS011;11636;52.086;5.090;2023-03-14T10:07:46;16.50;;;2.97;;
22939;SDS011;11636;52.086;5.090;2023-03-14T10:10:20;17.27;;;2.90;;
22939;SDS011;11636;52.086;5.090;2023-03-14T10:15:32;20.70;;;3.30;;
22939;SDS011;11636;52.086;5.090;2023-03-14T10:18:02;23.58;;;3.55;;
22939;SDS011;11636;52.086;5.090;2023-03-14T10:20:38;13.30;;;2.90;;
22939;SDS011;11636;52.086;5.090;2023-03-14T10:26:24;24.77;;;3.80;;
22939;SDS011;11636;52.086;5.090;2023-03-14T10:28:51;23.77;;;3.13;;
22939;SDS011;11636;52.086;5.090;2023-03-14T10:31:24;18.30;;;3.38;;
22939;SDS011;11636;52.086;5.090;2023-03-14T10:34:00;19.05;;;3.65;;
22939;SDS011;11636;52.086;5.090;2023-03-14T10:36:38;20.23;;;3.50;;
22939;SDS011;11636;52.086;5.090;2023-03-14T10:40:12;25.27;;;3.53;;
22939;SDS011;11636;52.086;5.090;2023-03-14T10:42:19;22.42;;;3.47;;
22939;SDS011;11636;52.086;5.090;2023-03-14T10:44:54;15.40;;;2.80;;
22939;SDS011;11636;52.086;5.090;2023-03-14T10:47:29;15.60;;;2.88;;
22939;SDS011;11636;52.086;5.090;2023-03-14T10:53:02;21.58;;;3.35;;
22939;SDS011;11636;52.086;5.090;2023-03-14T10:55:41;20.85;;;3.70;;
22939;SDS011;11636;52.086;5.090;2023-03-14T10:58:28;22.55;;;3.05;;
22939;SDS011;11636;52.086;5.090;2023-03-14T11:01:08;29.75;;;3.80;;
22939;SDS011;11636;52.086;5.090;2023-03-14T11:13:15;20.35;;;3.45;;
22939;SDS011;11636;52.086;5.090;2023-03-14T11:16:06;31.55;;;4.97;;
22939;SDS011;11636;52.086;5.090;2023-03-14T11:33:27;21.23;;;3.00;;
22939;SDS011;11636;52.086;5.090;2023-03-14T11:36:10;16.38;;;2.75;;
22939;SDS011;11636;52.086;5.090;2023-03-14T11:38:49;17.45;;;2.70;;
22939;SDS011;11636;52.086;5.090;2023-03-14T11:41:33;15.95;;;2.60;;
22939;SDS011;11636;52.086;5.090;2023-03-14T11:44:34;15.48;;;2.70;;
22939;SDS011;11636;52.086;5.090;2023-03-14T11:50:18;12.85;;;2.42;;
22939;SDS011;11636;52.086;5.090;2023-03-14T11:52:48;11.50;;;2.20;;
22939;SDS011;11636;52.086;5.090;2023-03-14T11:55:32;12.73;;;2.45;;
22939;SDS011;11636;52.086;5.090;2023-03-14T11:58:08;9.50;;;2.10;;
22939;SDS011;11636;52.086;5.090;2023-03-14T12:00:53;17.15;;;2.80;;
22939;SDS011;11636;52.086;5.090;2023-03-14T12:06:22;10.63;;;2.15;;
22939;SDS011;11636;52.086;5.090;2023-03-14T12:08:55;14.65;;;2.13;;
22939;SDS011;11636;52.086;5.090;2023-03-14T12:14:24;12.77;;;2.25;;
22939;SDS011;11636;52.086;5.090;2023-03-14T12:16:54;13.70;;;2.33;;
22939;SDS011;11636;52.086;5.090;2023-03-14T12:19:31;8.35;;;1.52;;
22939;SDS011;11636;52.086;5.090;2023-03-14T12:22:17;9.73;;;1.95;;
22939;SDS011;11636;52.086;5.090;2023-03-14T12:27:43;12.52;;;2.30;;
22939;SDS011;11636;52.086;5.090;2023-03-14T12:30:35;11.50;;;2.22;;
22939;SDS011;11636;52.086;5.090;2023-03-14T12:35:50;7.40;;;1.67;;
22939;SDS011;11636;52.086;5.090;2023-03-14T12:38:37;12.88;;;2.08;;
22939;SDS011;11636;52.086;5.090;2023-03-14T12:43:48;9.18;;;1.83;;
22939;SDS011;11636;52.086;5.090;2023-03-14T12:46:22;8.90;;;1.80;;
22939;SDS011;11636;52.086;5.090;2023-03-14T12:51:37;7.18;;;1.75;;
22939;SDS011;11636;52.086;5.090;2023-03-14T12:54:34;10.10;;;1.70;;
22939;SDS011;11636;52.086;5.090;2023-03-14T13:00:17;8.02;;;1.33;;
22939;SDS011;11636;52.086;5.090;2023-03-14T13:03:00;4.97;;;1.17;;
22939;SDS011;11636;52.086;5.090;2023-03-14T13:05:53;9.00;;;1.70;;
22939;SDS011;11636;52.086;5.090;2023-03-14T13:08:37;14.73;;;2.47;;
22939;SDS011;11636;52.086;5.090;2023-03-14T13:11:12;11.20;;;2.17;;
22939;SDS011;11636;52.086;5.090;2023-03-14T13:13:49;12.95;;;2.85;;
22939;SDS011;11636;52.086;5.090;2023-03-14T13:16:28;13.88;;;2.20;;
22939;SDS011;11636;52.086;5.090;2023-03-14T13:19:06;13.43;;;3.17;;
22939;SDS011;11636;52.086;5.090;2023-03-14T13:21:42;8.45;;;2.03;;
22939;SDS011;11636;52.086;5.090;2023-03-14T13:24:23;9.40;;;2.05;;
22939;SDS011;11636;52.086;5.090;2023-03-14T13:26:56;13.32;;;3.05;;
22939;SDS011;11636;52.086;5.090;2023-03-14T13:29:30;11.45;;;2.38;;
22939;SDS011;11636;52.086;5.090;2023-03-14T13:31:59;10.90;;;2.50;;
22939;SDS011;11636;52.086;5.090;2023-03-14T13:34:34;11.73;;;2.15;;
22939;SDS011;11636;52.086;5.090;2023-03-14T13:37:01;10.73;;;2.28;;
22939;SDS011;11636;52.086;5.090;2023-03-14T13:39:34;12.27;;;1.67;;
22939;SDS011;11636;52.086;5.090;2023-03-14T13:42:13;11.23;;;1.52;;
22939;SDS011;11636;52.086;5.090;2023-03-14T13:44:42;9.55;;;1.60;;
22939;SDS011;11636;52.086;5.090;2023-03-14T13:47:17;9.98;;;1.63;;
22939;SDS011;11636;52.086;5.090;2023-03-14T13:49:52;10.93;;;1.80;;
22939;SDS011;11636;52.086;5.090;2023-03-14T13:52:41;11.32;;;1.80;;
22939;SDS011;11636;52.086;5.090;2023-03-14T13:55:14;7.35;;;1.52;;
22939;SDS011;11636;52.086;5.090;2023-03-14T14:00:23;9.07;;;1.80;;
22939;SDS011;11636;52.086;5.090;2023-03-14T14:03:02;6.28;;;1.33;;
22939;SDS011;11636;52.086;5.090;2023-03-14T14:05:35;10.10;;;1.95;;
22939;SDS011;11636;52.086;5.090;2023-03-14T14:08:12;13.43;;;1.63;;
22939;SDS011;11636;52.086;5.090;2023-03-14T14:10:39;11.50;;;1.77;;
22939;SDS011;11636;52.086;5.090;2023-03-14T14:13:14;9.63;;;1.98;;
22939;SDS011;11636;52.086;5.090;2023-03-14T14:15:46;9.05;;;1.55;;
22939;SDS011;11636;52.086;5.090;2023-03-14T14:18:22;10.80;;;1.85;;
22939;SDS011;11636;52.086;5.090;2023-03-14T14:20:52;7.40;;;1.20;;
22939;SDS011;11636;52.086;5.090;2023-03-14T14:23:27;10.45;;;1.40;;
22939;SDS011;11636;52.086;5.090;2023-03-14T14:25:58;8.30;;;1.40;;
22939;SDS011;11636;52.086;5.090;2023-03-14T14:28:27;7.25;;;1.20;;
22939;SDS011;11636;52.086;5.090;2023-03-14T14:33:41;7.13;;;1.50;;
22939;SDS011;11636;52.086;5.090;2023-03-14T14:39:17;8.80;;;1.52;;
22939;SDS011;11636;52.086;5.090;2023-03-14T14:42:00;8.82;;;1.65;;
22939;SDS011;11636;52.086;5.090;2023-03-14T14:44:31;10.32;;;1.83;;
22939;SDS011;11636;52.086;5.090;2023-03-14T14:47:11;10.23;;;1.42;;
22939;SDS011;11636;52.086;5.090;2023-03-14T14:49:49;10.55;;;1.88;;
22939;SDS011;11636;52.086;5.090;2023-03-14T14:52:18;11.55;;;1.80;;
22939;SDS011;11636;52.086;5.090;2023-03-14T14:55:17;7.55;;;1.85;;
22939;SDS011;11636;52.086;5.090;2023-03-14T14:57:54;7.55;;;1.80;;
22939;SDS011;11636;52.086;5.090;2023-03-14T15:00:25;6.55;;;1.83;;
22939;SDS011;11636;52.086;5.090;2023-03-14T15:03:00;9.13;;;1.65;;
22939;SDS011;11636;52.086;5.090;2023-03-14T15:05:33;7.88;;;1.50;;
22939;SDS011;11636;52.086;5.090;2023-03-14T15:08:09;7.95;;;1.75;;
22939;SDS011;11636;52.086;5.090;2023-03-14T15:10:44;10.02;;;1.33;;
22939;SDS011;11636;52.086;5.090;2023-03-14T15:13:11;6.95;;;1.30;;
22939;SDS011;11636;52.086;5.090;2023-03-14T15:15:41;6.88;;;1.45;;
22939;SDS011;11636;52.086;5.090;2023-03-14T15:18:17;9.70;;;1.45;;
22939;SDS011;11636;52.086;5.090;2023-03-14T15:20:44;7.20;;;1.60;;
22939;SDS011;11636;52.086;5.090;2023-03-14T15:23:12;6.93;;;1.30;;
22939;SDS011;11636;52.086;5.090;2023-03-14T15:25:47;10.35;;;1.25;;
22939;SDS011;11636;52.086;5.090;2023-03-14T15:28:23;10.25;;;2.03;;
22939;SDS011;11636;52.086;5.090;2023-03-14T15:30:58;8.27;;;1.20;;
22939;SDS011;11636;52.086;5.090;2023-03-14T15:33:25;10.23;;;1.45;;
22939;SDS011;11636;52.086;5.090;2023-03-14T15:35:59;8.90;;;1.48;;
22939;SDS011;11636;52.086;5.090;2023-03-14T15:38:27;11.52;;;1.58;;
22939;SDS011;11636;52.086;5.090;2023-03-14T15:41:00;8.15;;;1.65;;
22939;SDS011;11636;52.086;5.090;2023-03-14T15:43:27;8.93;;;1.73;;
22939;SDS011;11636;52.086;5.090;2023-03-14T15:46:00;8.45;;;1.52;;
22939;SDS011;11636;52.086;5.090;2023-03-14T15:48:27;6.90;;;1.45;;
22939;SDS011;11636;52.086;5.090;2023-03-14T15:51:00;8.63;;;1.50;;
22939;SDS011;11636;52.086;5.090;2023-03-14T15:53:27;7.82;;;1.60;;
22939;SDS011;11636;52.086;5.090;2023-03-14T15:56:01;8.02;;;1.35;;
22939;SDS011;11636;52.086;5.090;2023-03-14T15:58:30;8.30;;;1.20;;
22939;SDS011;11636;52.086;5.090;2023-03-14T16:01:07;9.43;;;1.55;;
22939;SDS011;11636;52.086;5.090;2023-03-14T16:03:37;8.50;;;1.30;;
22939;SDS011;11636;52.086;5.090;2023-03-14T16:06:12;10.00;;;1.95;;
22939;SDS011;11636;52.086;5.090;2023-03-14T16:08:39;10.07;;;1.58;;
22939;SDS011;11636;52.086;5.090;2023-03-14T16:11:14;10.48;;;3.13;;
22939;SDS011;11636;52.086;5.090;2023-03-14T16:13:46;9.52;;;1.90;;
22939;SDS011;11636;52.086;5.090;2023-03-14T16:16:19;10.68;;;1.73;;
22939;SDS011;11636;52.086;5.090;2023-03-14T16:18:47;10.25;;;3.00;;
22939;SDS011;11636;52.086;5.090;2023-03-14T16:21:20;9.88;;;2.35;;
22939;SDS011;11636;52.086;5.090;2023-03-14T16:23:48;10.00;;;1.85;;
22939;SDS011;11636;52.086;5.090;2023-03-14T16:26:21;12.93;;;1.67;;
22939;SDS011;11636;52.086;5.090;2023-03-14T16:28:58;13.68;;;2.33;;